createdAt,value
2023-11-26T00:01:42.608Z,0.47
2023-11-26T00:04:10.885Z,0.50
2023-11-26T00:06:37.669Z,0.49
2023-11-26T00:09:05.894Z,0.53
2023-11-26T00:11:36.223Z,0.52
2023-11-26T00:14:03.923Z,0.51
2023-11-26T00:16:40.587Z,0.55
2023-11-26T00:19:07.921Z,0.47
2023-11-26T00:21:34.799Z,0.43
2023-11-26T00:24:01.976Z,0.34
2023-11-26T00:26:29.654Z,0.37
2023-11-26T00:28:58.318Z,0.37
2023-11-26T00:31:27.701Z,0.37
2023-11-26T00:33:55.300Z,0.30
2023-11-26T00:36:24.844Z,0.27
2023-11-26T00:38:52.241Z,0.22
2023-11-26T00:41:19.292Z,0.20
2023-11-26T00:43:47.379Z,0.15
2023-11-26T00:46:14.699Z,0.15
2023-11-26T00:48:44.099Z,0.11
2023-11-26T00:51:22.292Z,0.06
2023-11-26T00:53:52.391Z,-0.01
2023-11-26T00:56:19.453Z,-0.02
2023-11-26T00:58:46.827Z,-0.03
2023-11-26T01:01:13.835Z,-0.08
2023-11-26T01:03:40.727Z,-0.06
2023-11-26T01:06:07.654Z,-0.08
2023-11-26T01:09:00.517Z,-0.04
2023-11-26T01:11:27.666Z,-0.05
2023-11-26T01:13:57.126Z,-0.07
2023-11-26T01:16:25.288Z,-0.06
2023-11-26T01:18:52.432Z,-0.06
2023-11-26T01:21:19.553Z,-0.03
2023-11-26T01:23:47.500Z,-0.06
2023-11-26T01:26:14.537Z,-0.04
2023-11-26T01:28:41.909Z,-0.07
2023-11-26T01:31:14.525Z,-0.03
2023-11-26T01:33:41.904Z,0.02
2023-11-26T01:36:11.415Z,0.04
2023-11-26T01:38:39.015Z,0.06
2023-11-26T01:41:07.367Z,0.07
2023-11-26T01:43:34.796Z,0.08
2023-11-26T01:46:08.984Z,0.07
2023-11-26T01:48:37.997Z,0.03
2023-11-26T01:51:14.538Z,0.03
2023-11-26T01:53:45.418Z,-0.10
2023-11-26T01:56:15.615Z,-0.21
2023-11-26T01:58:43.257Z,-0.23
2023-11-26T02:01:12.481Z,-0.25
2023-11-26T02:03:40.627Z,-0.19
2023-11-26T02:06:07.869Z,-0.22
2023-11-26T02:08:35.103Z,-0.21
2023-11-26T02:11:02.415Z,-0.20
2023-11-26T02:13:30.849Z,-0.21
2023-11-26T02:16:02.879Z,-0.20
2023-11-26T02:18:30.531Z,-0.20
2023-11-26T02:20:59.432Z,-0.20
2023-11-26T02:23:27.525Z,-0.17
2023-11-26T02:25:55.001Z,-0.18
2023-11-26T02:28:22.555Z,-0.14
2023-11-26T02:30:50.857Z,-0.16
2023-11-26T02:33:17.830Z,-0.17
2023-11-26T02:35:44.697Z,-0.15
2023-11-26T02:38:11.803Z,-0.22
2023-11-26T02:40:39.977Z,-0.19
2023-11-26T02:43:07.179Z,-0.13
2023-11-26T02:45:36.132Z,-0.15
2023-11-26T02:48:03.164Z,-0.15
2023-11-26T02:50:31.529Z,-0.19
2023-11-26T02:52:58.477Z,-0.19
2023-11-26T02:55:26.428Z,-0.16
2023-11-26T02:57:56.302Z,-0.14
2023-11-26T03:00:23.581Z,-0.12
2023-11-26T03:02:51.277Z,-0.14
2023-11-26T03:05:23.237Z,-0.14
2023-11-26T03:07:59.365Z,-0.15
2023-11-26T03:10:39.532Z,-0.13
2023-11-26T03:13:13.990Z,-0.15
2023-11-26T03:15:43.257Z,-0.13
2023-11-26T03:18:14.631Z,-0.11
2023-11-26T03:20:43.527Z,-0.09
2023-11-26T03:23:11.672Z,-0.10
2023-11-26T03:25:40.378Z,-0.15
2023-11-26T03:28:07.623Z,-0.16
2023-11-26T03:30:39.528Z,-0.15
2023-11-26T03:33:06.869Z,-0.17
2023-11-26T03:35:34.180Z,-0.15
2023-11-26T03:38:02.100Z,-0.20
2023-11-26T03:40:30.036Z,-0.23
2023-11-26T03:42:56.938Z,-0.21
2023-11-26T03:45:23.914Z,-0.26
2023-11-26T03:47:51.956Z,-0.31
2023-11-26T03:50:20.549Z,-0.36
2023-11-26T03:52:47.826Z,-0.40
2023-11-26T03:55:18.252Z,-0.46
2023-11-26T03:57:45.406Z,-0.47
2023-11-26T04:00:14.196Z,-0.48
2023-11-26T04:02:42.471Z,-0.57
2023-11-26T04:05:10.418Z,-0.60
2023-11-26T04:07:38.207Z,-0.67
2023-11-26T04:10:08.087Z,-0.69
2023-11-26T04:12:37.340Z,-0.78
2023-11-26T04:15:06.851Z,-0.86
2023-11-26T04:17:35.966Z,-0.95
2023-11-26T04:20:07.269Z,-1.00
2023-11-26T04:22:35.746Z,-1.22
2023-11-26T04:25:03.171Z,-1.44
2023-11-26T04:27:30.283Z,-1.33
2023-11-26T04:29:59.036Z,-1.20
2023-11-26T04:32:29.012Z,-1.12
2023-11-26T04:34:56.097Z,-1.01
2023-11-26T04:37:23.017Z,-0.88
2023-11-26T04:39:51.007Z,-0.86
2023-11-26T04:42:19.046Z,-0.85
2023-11-26T04:44:45.906Z,-0.81
2023-11-26T04:47:13.116Z,-0.72
2023-11-26T04:49:41.484Z,-0.66
2023-11-26T04:52:09.970Z,-0.63
2023-11-26T04:54:38.119Z,-0.60
2023-11-26T04:57:08.134Z,-0.60
2023-11-26T04:59:37.391Z,-0.59
2023-11-26T05:02:07.931Z,-0.65
2023-11-26T05:04:35.418Z,-0.71
2023-11-26T05:07:02.197Z,-0.76
2023-11-26T05:09:29.745Z,-0.85
2023-11-26T05:11:57.659Z,-0.92
2023-11-26T05:14:24.713Z,-0.91
2023-11-26T05:16:52.009Z,-0.98
2023-11-26T05:19:22.577Z,-1.01
2023-11-26T05:21:50.582Z,-1.05
2023-11-26T05:24:20.193Z,-1.13
2023-11-26T05:26:49.172Z,-1.18
2023-11-26T05:29:16.153Z,-1.22
2023-11-26T05:31:43.550Z,-1.28
2023-11-26T05:34:10.434Z,-1.28
2023-11-26T05:36:37.421Z,-1.30
2023-11-26T05:39:08.047Z,-1.29
2023-11-26T05:41:39.449Z,-1.27
2023-11-26T05:44:06.702Z,-1.38
2023-11-26T05:46:33.531Z,-1.31
2023-11-26T05:49:02.141Z,-1.41
2023-11-26T05:51:31.101Z,-1.38
2023-11-26T05:54:01.120Z,-1.37
2023-11-26T05:56:28.001Z,-1.41
2023-11-26T05:58:57.012Z,-1.33
2023-11-26T06:01:25.108Z,-1.34
2023-11-26T06:03:54.130Z,-1.35
2023-11-26T06:06:21.718Z,-1.35
2023-11-26T06:08:50.002Z,-1.32
2023-11-26T06:11:16.847Z,-1.28
2023-11-26T06:13:46.005Z,-1.33
2023-11-26T06:16:13.340Z,-1.25
2023-11-26T06:18:40.281Z,-1.24
2023-11-26T06:21:08.086Z,-1.20
2023-11-26T06:23:36.298Z,-1.19
2023-11-26T06:26:05.315Z,-1.17
2023-11-26T06:28:33.894Z,-1.12
2023-11-26T06:31:01.214Z,-1.14
2023-11-26T06:33:29.210Z,-1.17
2023-11-26T06:35:56.663Z,-1.12
2023-11-26T06:38:23.492Z,-1.14
2023-11-26T06:40:51.578Z,-1.08
2023-11-26T06:43:21.900Z,-1.07
2023-11-26T06:45:50.991Z,-1.19
2023-11-26T06:48:28.215Z,-1.20
2023-11-26T06:50:55.076Z,-1.17
2023-11-26T06:53:22.040Z,-1.13
2023-11-26T06:55:49.110Z,-1.12
2023-11-26T06:58:18.254Z,-1.11
2023-11-26T07:00:46.677Z,-1.20
2023-11-26T07:03:13.971Z,-1.11
2023-11-26T07:05:41.974Z,-1.08
2023-11-26T07:08:09.901Z,-1.05
2023-11-26T07:10:37.620Z,-1.00
2023-11-26T07:13:08.591Z,-0.97
2023-11-26T07:15:36.541Z,-0.94
2023-11-26T07:18:04.721Z,-0.91
2023-11-26T07:20:35.036Z,-0.86
2023-11-26T07:23:02.824Z,-0.91
2023-11-26T07:25:30.759Z,-0.96
2023-11-26T07:28:04.103Z,-0.84
2023-11-26T07:30:31.589Z,-0.81
2023-11-26T07:32:59.866Z,-0.85
2023-11-26T07:35:35.150Z,-0.80
2023-11-26T07:38:02.762Z,-0.72
2023-11-26T07:40:32.845Z,-0.75
2023-11-26T07:43:02.152Z,-0.71
2023-11-26T07:45:30.325Z,-0.61
2023-11-26T07:47:57.429Z,-0.70
2023-11-26T07:50:24.269Z,-0.69
2023-11-26T07:52:51.334Z,-0.57
2023-11-26T07:55:18.182Z,-0.40
2023-11-26T07:57:46.340Z,-0.37
2023-11-26T08:00:18.986Z,-0.29
2023-11-26T08:02:47.692Z,-0.23
2023-11-26T08:05:20.067Z,-0.13
2023-11-26T08:07:48.528Z,-0.08
2023-11-26T08:10:27.275Z,-0.04
2023-11-26T08:12:54.725Z,-0.04
2023-11-26T08:15:23.718Z,-0.02
2023-11-26T08:17:56.854Z,0.06
2023-11-26T08:20:25.053Z,0.09
2023-11-26T08:22:52.975Z,0.04
2023-11-26T08:25:29.577Z,0.12
2023-11-26T08:27:56.820Z,0.24
2023-11-26T08:30:33.041Z,0.32
2023-11-26T08:33:01.689Z,0.24
2023-11-26T08:35:31.899Z,0.38
2023-11-26T08:38:03.365Z,0.69
2023-11-26T08:40:34.903Z,0.65
2023-11-26T08:43:11.336Z,0.45
2023-11-26T08:45:42.328Z,0.26
2023-11-26T08:48:11.942Z,0.19
2023-11-26T08:50:40.955Z,0.03
2023-11-26T08:53:10.968Z,-0.05
2023-11-26T08:55:38.245Z,-0.15
2023-11-26T08:58:05.184Z,-0.19
2023-11-26T09:00:32.116Z,-0.26
2023-11-26T09:02:59.521Z,-0.30
2023-11-26T09:05:26.506Z,-0.30
2023-11-26T09:07:59.157Z,-0.31
2023-11-26T09:10:27.008Z,-0.34
2023-11-26T09:12:53.963Z,-0.45
2023-11-26T09:15:26.728Z,-0.50
2023-11-26T09:17:54.976Z,-0.62
2023-11-26T09:20:22.150Z,-0.57
2023-11-26T09:22:50.524Z,-0.62
2023-11-26T09:25:17.667Z,-0.65
2023-11-26T09:27:45.068Z,-0.78
2023-11-26T09:30:12.264Z,-0.80
2023-11-26T09:32:39.969Z,-0.83
2023-11-26T09:35:07.760Z,-0.84
2023-11-26T09:37:34.974Z,-0.77
2023-11-26T09:40:02.636Z,-0.70
2023-11-26T09:42:29.835Z,-0.78
2023-11-26T09:44:56.906Z,-0.64
2023-11-26T09:47:24.532Z,-0.60
2023-11-26T09:49:51.796Z,-0.63
2023-11-26T09:52:22.338Z,-0.66
2023-11-26T09:54:53.253Z,-0.61
2023-11-26T09:57:20.730Z,-0.57
2023-11-26T09:59:47.895Z,-0.60
2023-11-26T10:02:17.801Z,-0.76
2023-11-26T10:04:50.161Z,-0.65
2023-11-26T10:07:18.712Z,-0.62
2023-11-26T10:10:02.246Z,-0.32
2023-11-26T10:12:31.579Z,0.71
2023-11-26T10:15:10.586Z,2.05
2023-11-26T10:17:37.748Z,2.28
2023-11-26T10:20:19.450Z,2.16
2023-11-26T10:22:47.637Z,2.27
2023-11-26T10:25:17.797Z,2.77
2023-11-26T10:27:45.258Z,2.72
2023-11-26T10:30:25.789Z,2.75
2023-11-26T10:33:09.980Z,3.17
2023-11-26T10:35:55.174Z,3.04
2023-11-26T10:38:29.611Z,2.99
2023-11-26T10:40:59.276Z,3.38
2023-11-26T10:43:28.886Z,3.90
2023-11-26T10:46:00.444Z,4.09
2023-11-26T10:51:35.840Z,2.78
2023-11-26T10:54:08.995Z,2.03
2023-11-26T10:56:47.047Z,1.53
2023-11-26T10:59:22.383Z,2.37
2023-11-26T11:01:50.189Z,3.29
2023-11-26T11:04:22.545Z,3.86
2023-11-26T11:06:49.390Z,3.99
2023-11-26T11:09:28.741Z,4.46
2023-11-26T11:12:08.592Z,4.99
2023-11-26T11:14:35.842Z,5.25
2023-11-26T11:17:03.100Z,5.21
2023-11-26T11:19:47.664Z,4.57
2023-11-26T11:22:15.119Z,3.64
2023-11-26T11:24:44.757Z,3.44
2023-11-26T11:27:13.258Z,3.46
2023-11-26T11:29:43.272Z,2.83
2023-11-26T11:32:11.219Z,1.78
2023-11-26T11:34:41.466Z,1.30
2023-11-26T11:37:09.651Z,0.83
2023-11-26T11:39:55.350Z,0.38
2023-11-26T11:42:28.088Z,0.20
2023-11-26T11:44:57.421Z,0.27
2023-11-26T11:47:39.664Z,0.30
2023-11-26T11:50:08.505Z,0.45
2023-11-26T11:52:39.143Z,0.88
2023-11-26T11:55:41.838Z,0.49
2023-11-26T11:58:14.671Z,-0.02
2023-11-26T12:00:45.229Z,-0.12
2023-11-26T12:03:18.390Z,-0.26
2023-11-26T12:05:45.861Z,-0.38
2023-11-26T12:08:16.626Z,-0.30
2023-11-26T12:10:46.933Z,-0.23
2023-11-26T12:13:14.415Z,-0.06
2023-11-26T12:15:55.191Z,1.25
2023-11-26T12:18:22.484Z,3.15
2023-11-26T12:20:50.702Z,4.55
2023-11-26T12:23:43.279Z,5.41
2023-11-26T12:26:10.401Z,5.89
2023-11-26T12:28:47.938Z,4.98
2023-11-26T12:31:16.497Z,5.17
2023-11-26T12:33:49.070Z,5.76
2023-11-26T12:36:17.432Z,6.05
2023-11-26T12:38:46.249Z,5.91
2023-11-26T12:41:13.666Z,6.00
2023-11-26T12:43:41.350Z,6.22
2023-11-26T12:46:14.950Z,6.08
2023-11-26T12:48:42.933Z,5.35
2023-11-26T12:51:15.647Z,5.40
2023-11-26T12:53:42.694Z,5.60
2023-11-26T12:56:12.617Z,6.24
2023-11-26T12:58:40.911Z,6.76
2023-11-26T13:01:08.638Z,7.26
2023-11-26T13:03:49.270Z,7.22
2023-11-26T13:06:16.337Z,5.36
2023-11-26T13:09:00.246Z,4.15
2023-11-26T13:11:30.173Z,3.97
2023-11-26T13:14:06.733Z,3.27
2023-11-26T13:16:41.996Z,1.83
2023-11-26T13:19:11.320Z,1.24
2023-11-26T13:21:49.471Z,0.78
2023-11-26T13:24:19.916Z,0.33
2023-11-26T13:26:49.402Z,0.68
2023-11-26T13:29:17.130Z,0.83
2023-11-26T13:31:44.208Z,1.34
2023-11-26T13:34:12.084Z,2.04
2023-11-26T13:36:39.306Z,2.02
2023-11-26T13:39:07.268Z,1.90
2023-11-26T13:41:37.114Z,2.62
2023-11-26T13:44:04.499Z,2.92
2023-11-26T13:46:35.611Z,2.72
2023-11-26T13:49:03.913Z,2.50
2023-11-26T13:51:32.489Z,1.48
2023-11-26T13:54:00.627Z,0.88
2023-11-26T13:56:29.016Z,0.45
2023-11-26T13:58:57.588Z,0.23
2023-11-26T14:01:24.745Z,0.00
2023-11-26T14:03:52.910Z,-0.09
2023-11-26T14:06:22.189Z,0.01
2023-11-26T14:08:49.097Z,0.09
2023-11-26T14:11:20.698Z,0.28
2023-11-26T14:13:48.755Z,0.51
2023-11-26T14:16:18.971Z,1.01
2023-11-26T14:18:46.217Z,1.04
2023-11-26T14:21:13.595Z,0.96
2023-11-26T14:23:41.822Z,0.61
2023-11-26T14:26:11.422Z,0.41
2023-11-26T14:28:41.232Z,0.20
2023-11-26T14:31:09.805Z,0.05
2023-11-26T14:33:37.199Z,-0.07
2023-11-26T14:36:04.936Z,-0.13
2023-11-26T14:38:32.034Z,-0.10
2023-11-26T14:41:00.933Z,-0.20
2023-11-26T14:43:28.310Z,-0.33
2023-11-26T14:45:55.461Z,-0.38
2023-11-26T14:48:24.150Z,-0.43
2023-11-26T14:50:51.237Z,-0.44
2023-11-26T14:53:18.221Z,-0.47
2023-11-26T14:55:46.728Z,-0.75
2023-11-26T14:58:13.569Z,-1.15
2023-11-26T15:00:40.540Z,-1.34
2023-11-26T15:03:08.553Z,-1.57
2023-11-26T15:05:35.649Z,-1.64
2023-11-26T15:08:02.507Z,-1.65
2023-11-26T15:10:30.372Z,-1.80
2023-11-26T15:12:58.895Z,-1.86
2023-11-26T15:15:28.145Z,-1.88
2023-11-26T15:17:55.257Z,-1.92
2023-11-26T15:20:22.439Z,-2.00
2023-11-26T15:22:49.820Z,-2.07
2023-11-26T15:25:17.257Z,-1.97
2023-11-26T15:27:45.004Z,-2.12
2023-11-26T15:30:16.436Z,-2.10
2023-11-26T15:32:43.738Z,-2.12
2023-11-26T15:35:13.345Z,-2.20
2023-11-26T15:37:40.799Z,-2.08
2023-11-26T15:40:12.564Z,-1.64
2023-11-26T15:42:41.459Z,-1.40
2023-11-26T15:45:12.034Z,-1.28
2023-11-26T15:47:41.194Z,-1.19
2023-11-26T15:50:08.530Z,-1.10
2023-11-26T15:52:35.812Z,-1.17
2023-11-26T15:55:04.777Z,-1.10
2023-11-26T15:57:32.094Z,-1.38
2023-11-26T16:00:00.593Z,-1.64
2023-11-26T16:02:28.097Z,-1.83
2023-11-26T16:04:56.058Z,-1.85
2023-11-26T16:07:22.975Z,-2.03
2023-11-26T16:09:53.025Z,-1.92
2023-11-26T16:12:20.367Z,-1.90
2023-11-26T16:14:47.765Z,-1.94
2023-11-26T16:17:26.987Z,-2.02
2023-11-26T16:19:59.730Z,-2.08
2023-11-26T16:22:27.603Z,-2.25
2023-11-26T16:24:54.534Z,-2.43
2023-11-26T16:27:22.741Z,-2.68
2023-11-26T16:29:51.309Z,-2.73
2023-11-26T16:32:23.848Z,-2.65
2023-11-26T16:34:51.013Z,-2.68
2023-11-26T16:37:18.675Z,-2.81
2023-11-26T16:39:46.408Z,-2.69
2023-11-26T16:42:13.381Z,-2.76
2023-11-26T16:44:41.258Z,-2.80
2023-11-26T16:47:12.414Z,-2.79
2023-11-26T16:49:39.287Z,-2.80
2023-11-26T16:52:10.427Z,-2.89
2023-11-26T16:54:38.885Z,-3.00
2023-11-26T16:57:07.277Z,-2.96
2023-11-26T16:59:34.443Z,-3.10
2023-11-26T17:02:02.025Z,-3.02
2023-11-26T17:04:29.355Z,-3.01
2023-11-26T17:06:56.319Z,-3.03
2023-11-26T17:09:25.936Z,-3.01
2023-11-26T17:11:53.286Z,-3.12
2023-11-26T17:14:20.482Z,-3.19
2023-11-26T17:16:50.581Z,-3.24
2023-11-26T17:19:19.674Z,-3.30
2023-11-26T17:21:46.990Z,-3.39
2023-11-26T17:24:15.884Z,-3.46
2023-11-26T17:26:46.134Z,-3.51
2023-11-26T17:29:14.220Z,-3.41
2023-11-26T17:31:42.344Z,-3.36
2023-11-26T17:34:09.979Z,-3.25
2023-11-26T17:36:41.795Z,-2.98
2023-11-26T17:39:10.319Z,-2.96
2023-11-26T17:41:38.796Z,-2.84
2023-11-26T17:44:06.658Z,-2.84
2023-11-26T17:46:36.176Z,-2.70
2023-11-26T17:49:04.627Z,-2.69
2023-11-26T17:51:35.116Z,-2.71
2023-11-26T17:54:02.232Z,-2.64
2023-11-26T17:56:29.665Z,-2.59
2023-11-26T17:58:56.456Z,-2.36
2023-11-26T18:01:24.716Z,-2.33
2023-11-26T18:03:56.011Z,-2.30
2023-11-26T18:06:23.771Z,-2.26
2023-11-26T18:08:53.873Z,-2.29
2023-11-26T18:11:22.535Z,-2.18
2023-11-26T18:13:53.743Z,-2.19
2023-11-26T18:16:21.354Z,-2.20
2023-11-26T18:18:50.305Z,-2.32
2023-11-26T18:21:18.709Z,-2.39
2023-11-26T18:23:46.027Z,-2.38
2023-11-26T18:26:13.963Z,-2.45
2023-11-26T18:28:43.259Z,-2.53
2023-11-26T18:31:11.101Z,-2.63
2023-11-26T18:33:38.414Z,-2.63
2023-11-26T18:36:05.484Z,-2.54
2023-11-26T18:38:32.958Z,-2.39
2023-11-26T18:41:00.357Z,-2.48
2023-11-26T18:43:29.883Z,-2.35
2023-11-26T18:45:57.440Z,-2.30
2023-11-26T18:48:24.705Z,-2.37
2023-11-26T18:50:52.447Z,-2.22
2023-11-26T18:53:20.528Z,-2.26
2023-11-26T18:55:48.426Z,-2.18
2023-11-26T18:58:15.815Z,-2.37
2023-11-26T19:00:44.912Z,-2.47
2023-11-26T19:03:12.343Z,-2.44
2023-11-26T19:05:42.393Z,-2.49
2023-11-26T19:08:12.331Z,-2.70
2023-11-26T19:10:41.099Z,-2.62
2023-11-26T19:13:09.992Z,-2.87
2023-11-26T19:15:38.217Z,-2.98
2023-11-26T19:18:08.457Z,-2.76
2023-11-26T19:20:38.482Z,-2.89
2023-11-26T19:23:05.576Z,-2.95
2023-11-26T19:25:33.087Z,-2.90
2023-11-26T19:28:01.235Z,-2.80
2023-11-26T19:30:28.775Z,-2.81
2023-11-26T19:32:58.091Z,-2.92
2023-11-26T19:35:24.945Z,-3.01
2023-11-26T19:37:52.956Z,-3.25
2023-11-26T19:40:21.422Z,-3.24
2023-11-26T19:42:49.378Z,-3.08
2023-11-26T19:45:16.396Z,-3.12
2023-11-26T19:47:43.367Z,-2.99
2023-11-26T19:50:10.951Z,-3.18
2023-11-26T19:52:39.387Z,-3.24
2023-11-26T19:55:08.268Z,-3.11
2023-11-26T19:57:36.700Z,-2.95
2023-11-26T20:00:08.941Z,-2.91
2023-11-26T20:02:37.459Z,-3.01
2023-11-26T20:05:05.421Z,-3.02
2023-11-26T20:07:33.908Z,-3.01
2023-11-26T20:10:01.317Z,-3.00
2023-11-26T20:12:33.840Z,-2.99
2023-11-26T20:15:01.785Z,-2.90
2023-11-26T20:17:31.970Z,-2.85
2023-11-26T20:19:59.260Z,-2.87
2023-11-26T20:22:26.203Z,-2.74
2023-11-26T20:24:54.268Z,-2.73
2023-11-26T20:27:22.769Z,-2.70
2023-11-26T20:29:53.183Z,-2.70
2023-11-26T20:32:20.087Z,-2.57
2023-11-26T20:34:47.400Z,-2.59
2023-11-26T20:37:15.016Z,-2.55
2023-11-26T20:39:42.070Z,-2.46
2023-11-26T20:42:10.419Z,-2.46
2023-11-26T20:44:45.068Z,-2.48
2023-11-26T20:47:14.010Z,-2.51
2023-11-26T20:49:49.229Z,-2.57
2023-11-26T20:52:18.006Z,-2.55
2023-11-26T20:54:48.745Z,-2.52
2023-11-26T20:57:16.799Z,-2.51
2023-11-26T20:59:45.018Z,-2.61
2023-11-26T21:02:12.830Z,-2.54
2023-11-26T21:04:46.547Z,-2.65
2023-11-26T21:07:13.529Z,-2.64
2023-11-26T21:09:40.934Z,-2.65
2023-11-26T21:12:10.295Z,-2.42
2023-11-26T21:14:39.747Z,-2.45
2023-11-26T21:17:07.022Z,-2.42
2023-11-26T21:19:37.138Z,-2.56
2023-11-26T21:22:04.249Z,-2.52
2023-11-26T21:24:31.112Z,-2.50
2023-11-26T21:27:01.137Z,-2.34
2023-11-26T21:29:29.248Z,-2.42
2023-11-26T21:31:58.572Z,-2.50
2023-11-26T21:34:25.933Z,-2.50
2023-11-26T21:36:53.030Z,-2.43
2023-11-26T21:39:19.906Z,-2.76
2023-11-26T21:41:46.948Z,-2.76
2023-11-26T21:44:15.847Z,-2.61
2023-11-26T21:46:43.928Z,-2.47
2023-11-26T21:49:13.414Z,-2.58
2023-11-26T21:51:43.207Z,-2.64
2023-11-26T21:54:10.930Z,-2.63
2023-11-26T21:56:38.836Z,-2.74
2023-11-26T21:59:06.964Z,-2.93
2023-11-26T22:01:34.463Z,-3.04
2023-11-26T22:04:01.714Z,-3.12
2023-11-26T22:06:28.689Z,-3.12
2023-11-26T22:09:00.246Z,-3.20
2023-11-26T22:11:28.211Z,-2.89
2023-11-26T22:13:56.696Z,-2.79
2023-11-26T22:16:25.719Z,-2.75
2023-11-26T22:18:52.629Z,-2.68
2023-11-26T22:21:22.785Z,-2.72
2023-11-26T22:23:53.032Z,-2.60
2023-11-26T22:26:20.048Z,-2.58
2023-11-26T22:28:47.947Z,-2.58
2023-11-26T22:31:19.699Z,-2.60
2023-11-26T22:33:47.681Z,-2.47
2023-11-26T22:36:24.338Z,-2.40
2023-11-26T22:38:53.129Z,-2.43
2023-11-26T22:41:26.776Z,-2.37
2023-11-26T22:43:56.736Z,-2.39
2023-11-26T22:46:25.563Z,-2.56
2023-11-26T22:48:55.781Z,-2.68
2023-11-26T22:51:24.301Z,-2.80
2023-11-26T22:53:52.287Z,-2.78
2023-11-26T22:56:22.638Z,-2.64
2023-11-26T22:58:53.332Z,-2.38
2023-11-26T23:01:20.659Z,-2.36
2023-11-26T23:03:50.020Z,-2.49
2023-11-26T23:06:17.895Z,-2.40
2023-11-26T23:08:45.518Z,-2.32
2023-11-26T23:11:16.140Z,-2.38
2023-11-26T23:13:46.601Z,-2.31
2023-11-26T23:16:13.871Z,-2.34
2023-11-26T23:18:41.251Z,-2.38
2023-11-26T23:21:09.703Z,-2.48
2023-11-26T23:23:42.589Z,-2.52
2023-11-26T23:26:17.810Z,-2.58
2023-11-26T23:28:47.886Z,-2.49
2023-11-26T23:31:22.191Z,-2.47
2023-11-26T23:33:51.001Z,-2.47
2023-11-26T23:36:18.515Z,-2.57
2023-11-26T23:38:49.670Z,-2.41
2023-11-26T23:41:17.026Z,-2.37
2023-11-26T23:43:45.053Z,-2.37
2023-11-26T23:46:13.081Z,-2.40
2023-11-26T23:48:44.016Z,-2.38
2023-11-26T23:51:13.617Z,-2.48
2023-11-26T23:53:40.911Z,-2.42
2023-11-26T23:56:08.479Z,-2.42
2023-11-26T23:58:36.931Z,-2.36
